Jerico, Brazil
Current Conditions -  °F | °C
As of 4:00 PM on Sunday 23 Nov 2014 (Local Time) from SBJU Reporting Station
Few Clouds Few Clouds  
Wind Chill: 95°   Ceiling: Unl
Heat Index: 95°   Visibility: 6mi
Dew Point: 59°   Wind: 0mph
Humidity: 30%   Direction: NA
Pressure: 29.91"   Gusts: NA
Location:  6.55°S, 37.81°W
Report Text: SBJU 231900Z 00000KT 9999 FEW020 35/15 Q1013
Loading
Personal Weather Stations






























Interactive Weather Map New forecast layout! Learn more

10-Day Weather Forecast

Advertisements
Track Severe Weather on mobile